Terminal Aerodrome Forecast
Issued by NWS

Home | Current Version | Previous Version | Text Only | Print | Product List | Glossary On
Versions: 1 2 3 4 5 6 7 8 9 10 11 12 13 14 15 16 17 18 19 20 21
951
FTUS41 KPHI 160906 AAA
TAFMIV
TAF AMD
KMIV 160906Z 1609/1706 28008KT P6SM SKC
      TEMPO 1609/1611 3SM BR
     FM161700 25011KT P6SM BKN090
     FM170100 27008KT P6SM BKN050=

USA.gov is the U.S. government's official web portal to all federal, state and local government web resources and services.